Limon, CO

12:12 AM MDT on March 29, 2017 (GMT -0600)
Limon Municipal | | Change Station

Elev 5364 ft 39.27 °N, 103.67 °W | Updated 17 minutes ago

Light Snow
Light Snow Mist
33 °F
Feels Like 26 °F
N
8
Wind Variable Wind from NE

Today
High -- | Low -- °F
--% Chance of Precip.
Yesterday
High -- | Low -- °F
Precip. -- in
Pressure 30.00 in
Visibility 4.0 miles
Clouds Few 500 ft
Overcast 2000 ft
Windchill 26 °F
Dew Point 33 °F
Humidity 100%
Rainfall 0.26 in
Snow Depth Not available.
6:43 AM 7:15 PM
New Moon, 2% visible
METAR KLIC 290555Z AUTO 05007KT 4SM -SN BR FEW005 OVC020 01/01 A3001 RMK AO2 RAE10SNB10 SLP158 P0005 60008 T00060006 10050 20006 51012 TSNO
Pressure 30.00 in
Visibility 4.0 miles
Clouds Few 500 ft
Overcast 2000 ft
Windchill 26 °F
Dew Point 33 °F
Humidity 100%
Rainfall 0.26 in
Snow Depth Not available.
6:43 AM 7:15 PM
New Moon, 2% visible
METAR KLIC 290555Z AUTO 05007KT 4SM -SN BR FEW005 OVC020 01/01 A3001 RMK AO2 RAE10SNB10 SLP158 P0005 60008 T00060006 10050 20006 51012 TSNO

Get Severe Weather Alerts

Thanks for signing up!

Be on the lookout for a verification email in your inbox.

You'll start receiving the daily forecast at 8 AM.

×

10-Day Weather Forecast

Almanac

Astronomy

Mar. 29, 2017 Rise Set
Actual Time
Civil Twilight
Nautical Twilight
Astronomical Twilight
Moon
Length of Visible Light
Length of Day
Tomorrow will be .
, % of the Moon is Illuminated

Today's Extremes

State Highs State Lows

Community

WunderPhotos

Upload Photos

1,962,540 photos uploaded!

WunderBlog® & News

Nearby

Air Quality

  Air Quality AQ Index Pollutant
Not available.

Snow Depth

Station Depth Elevation

Earthquake Activity

City Distance Mag. Time & Date
Minimum magnitude displayed is 2.5.

Earthquake Activity

City Distance Mag. Time & Date
Minimum magnitude displayed is 2.5.

Coastal Water Temperatures

Place Temperature

Stations

Nearby Weather Stations

Station Location Temp. Windchill Dew Point Humidity Wind Precip. Elev Updated Type
                   

Watches & Warnings

There are currently no watches in effect.